Time;durP1;ratioP1;P1;durP2;ratioP2;P2;SDS_P1;SDS_P2;PMS_P1;PMS_P2;Temp;Humidity;BMP_temperature;BMP_pressure;BME280_temperature;BME280_humidity;BME280_pressure;Samples;Min_cycle;Max_cycle;Signal;HPM_P1;HPM_P2
2021/12/17 00:00:33;;;;;;;9.27;5.63;;;11.90;78.90;;;;;;5020852;28;20036;-91
2021/12/17 00:08:13;;;;;;;7.93;4.70;;;11.90;78.90;;;;;;5054770;28;20029;-89
2021/12/17 00:10:40;;;;;;;8.70;5.55;;;11.90;78.80;;;;;;5020775;28;20064;-92
2021/12/17 00:13:07;;;;;;;9.07;5.47;;;11.90;78.90;;;;;;5037583;28;20053;-92
2021/12/17 00:15:35;;;;;;;9.07;5.40;;;11.90;78.90;;;;;;5057965;28;20036;-92
2021/12/17 00:18:10;;;;;;;9.98;5.65;;;11.90;79.00;;;;;;5025835;28;20122;-92
2021/12/17 00:40:13;;;;;;;10.70;5.75;;;11.90;78.90;;;;;;5042160;28;20029;-92
2021/12/17 00:48:24;;;;;;;9.13;5.28;;;11.80;78.80;;;;;;5058366;28;20485;-92
2021/12/17 00:53:35;;;;;;;8.80;5.30;;;11.80;78.90;;;;;;5057628;28;20043;-91
2021/12/17 00:56:02;;;;;;;9.02;5.18;;;11.80;78.80;;;;;;5057501;28;20029;-92
2021/12/17 00:58:29;;;;;;;9.95;5.55;;;11.80;78.90;;;;;;5024637;28;20033;-92
2021/12/17 01:00:55;;;;;;;9.73;5.75;;;11.80;78.90;;;;;;5040291;28;20541;-92
2021/12/17 01:03:21;;;;;;;11.15;6.03;;;11.80;78.90;;;;;;5040403;28;20036;-92
2021/12/17 01:05:49;;;;;;;8.85;4.68;;;11.80;78.90;;;;;;5041345;28;20035;-92
2021/12/17 01:08:15;;;;;;;8.43;5.10;;;11.80;78.90;;;;;;5008481;28;20458;-92
2021/12/17 01:10:47;;;;;;;8.80;4.75;;;11.80;78.80;;;;;;5040929;28;20049;-91
2021/12/17 01:13:35;;;;;;;9.57;5.82;;;11.80;78.90;;;;;;5057815;28;20087;-90
2021/12/17 01:16:15;;;;;;;10.35;5.68;;;11.80;78.80;;;;;;5042784;28;20036;-92
2021/12/17 01:19:13;;;;;;;10.77;5.70;;;11.80;78.80;;;;;;5057765;28;20025;-91
2021/12/17 01:22:43;;;;;;;9.60;5.35;;;11.80;78.80;;;;;;5041145;28;20033;-93
2021/12/17 01:24:44;;;;;;;10.32;5.55;;;11.90;78.90;;;;;;5051094;28;20065;-91
2021/12/17 01:36:12;;;;;;;9.82;5.60;;;11.80;78.80;;;;;;5049658;28;20041;-91
2021/12/17 01:43:48;;;;;;;9.73;5.88;;;11.80;79.00;;;;;;5056712;28;20026;-90
2021/12/17 01:46:25;;;;;;;10.88;5.85;;;11.80;79.00;;;;;;5040636;28;20343;-91
2021/12/17 01:59:17;;;;;;;9.60;5.60;;;11.80;78.90;;;;;;5056827;28;20032;-92
2021/12/17 01:59:45;;;;;;;9.75;4.90;;;11.80;79.00;;;;;;5041355;28;20070;-90
2021/12/17 02:02:11;;;;;;;10.20;5.80;;;11.80;78.90;;;;;;5039571;28;20025;-92
2021/12/17 02:04:38;;;;;;;9.95;5.28;;;11.80;79.00;;;;;;5039247;28;20412;-91
2021/12/17 02:07:05;;;;;;;10.00;5.32;;;11.80;79.00;;;;;;5039060;28;20036;-91
2021/12/17 02:32:05;;;;;;;8.40;4.80;;;11.70;79.00;;;;;;5056398;28;20051;-93
2021/12/17 02:37:06;;;;;;;9.02;5.30;;;11.70;79.00;;;;;;5057345;28;20101;-91
2021/12/17 02:47:31;;;;;;;9.38;4.85;;;11.80;79.00;;;;;;5058110;28;20086;-90
2021/12/17 02:49:56;;;;;;;8.10;5.03;;;11.70;79.00;;;;;;5056961;28;20056;-93
2021/12/17 02:52:27;;;;;;;8.40;5.25;;;11.70;79.00;;;;;;5038980;28;20060;-92
2021/12/17 02:54:55;;;;;;;7.90;4.82;;;11.70;79.00;;;;;;5038747;28;20063;-91
2021/12/17 02:57:21;;;;;;;7.18;4.30;;;11.70;79.00;;;;;;5038314;28;20056;-92
2021/12/17 02:59:47;;;;;;;7.97;5.07;;;11.70;79.00;;;;;;5038427;28;20025;-92
2021/12/17 03:02:13;;;;;;;9.18;4.95;;;11.70;79.00;;;;;;5021344;28;20046;-91
2021/12/17 03:04:41;;;;;;;8.45;4.93;;;11.70;79.00;;;;;;5038069;28;20037;-91
2021/12/17 03:07:10;;;;;;;9.15;4.68;;;11.70;79.00;;;;;;5054973;28;20025;-93
2021/12/17 03:12:29;;;;;;;7.53;4.57;;;11.70;78.90;;;;;;5054790;28;20120;-91
2021/12/17 03:15:07;;;;;;;7.32;4.38;;;11.70;78.90;;;;;;5037590;28;20525;-92
2021/12/17 03:25:31;;;;;;;7.00;4.10;;;11.70;78.90;;;;;;5040783;28;20044;-88
2021/12/17 03:27:56;;;;;;;8.05;4.60;;;11.70;78.90;;;;;;5037836;28;20021;-92
2021/12/17 03:30:22;;;;;;;7.82;4.35;;;11.70;79.00;;;;;;5021045;28;20493;-90
2021/12/17 03:32:48;;;;;;;8.30;4.75;;;11.70;79.00;;;;;;5038084;28;20025;-92
2021/12/17 03:35:14;;;;;;;8.32;4.65;;;11.70;79.00;;;;;;5021379;28;20031;-92
2021/12/17 03:37:39;;;;;;;7.30;4.30;;;11.70;79.00;;;;;;5055318;28;20473;-90
2021/12/17 03:40:06;;;;;;;6.90;3.95;;;11.70;79.00;;;;;;5054495;28;20082;-90
2021/12/17 03:42:32;;;;;;;7.18;4.50;;;11.70;79.00;;;;;;5055559;28;20021;-90
2021/12/17 03:44:59;;;;;;;7.63;4.07;;;11.70;79.00;;;;;;5037663;28;20040;-92
2021/12/17 03:47:49;;;;;;;7.28;4.43;;;11.70;79.00;;;;;;5054276;28;20115;-92
2021/12/17 03:50:18;;;;;;;6.88;4.10;;;11.70;78.90;;;;;;5038286;28;20049;-91
2021/12/17 03:52:44;;;;;;;7.60;4.53;;;11.70;79.00;;;;;;5039143;28;20033;-91
2021/12/17 03:55:13;;;;;;;7.85;4.65;;;11.70;79.00;;;;;;5054759;28;20319;-90
2021/12/17 03:57:47;;;;;;;7.63;4.32;;;11.70;79.00;;;;;;5022274;28;20039;-91
2021/12/17 04:00:13;;;;;;;7.53;4.25;;;11.70;79.00;;;;;;5037432;28;20033;-92
2021/12/17 04:02:46;;;;;;;7.32;4.15;;;11.70;79.00;;;;;;5055051;28;20453;-91
2021/12/17 04:05:26;;;;;;;7.55;3.63;;;11.70;79.00;;;;;;5040323;28;20032;-89
2021/12/17 04:08:15;;;;;;;7.00;3.85;;;11.70;79.00;;;;;;5014051;28;20033;-92
2021/12/17 04:10:54;;;;;;;7.47;4.57;;;11.70;78.90;;;;;;5024045;28;20061;-90
2021/12/17 04:16:06;;;;;;;7.38;4.07;;;11.70;79.00;;;;;;5037004;28;20040;-91
2021/12/17 04:18:35;;;;;;;6.72;3.88;;;11.70;79.00;;;;;;5037369;28;20386;-89
2021/12/17 04:21:03;;;;;;;7.50;4.20;;;11.70;79.00;;;;;;5053545;28;20072;-90
2021/12/17 04:23:31;;;;;;;7.15;3.92;;;11.70;79.00;;;;;;5036994;28;20036;-92
2021/12/17 04:25:58;;;;;;;6.72;3.78;;;11.70;79.00;;;;;;5037386;28;20025;-91
2021/12/17 04:28:24;;;;;;;7.25;4.15;;;11.70;79.00;;;;;;5055289;28;20033;-92
2021/12/17 04:30:51;;;;;;;6.55;4.00;;;11.70;79.00;;;;;;5054563;28;20049;-91
2021/12/17 04:33:17;;;;;;;6.80;4.18;;;11.70;79.00;;;;;;5004008;28;20508;-91
2021/12/17 04:35:44;;;;;;;7.35;4.40;;;11.70;79.00;;;;;;5020607;28;20029;-90
2021/12/17 04:38:11;;;;;;;7.43;4.10;;;11.70;79.00;;;;;;5053378;28;20127;-89
2021/12/17 04:40:42;;;;;;;7.30;4.30;;;11.70;79.00;;;;;;5037091;28;20029;-89
2021/12/17 04:45:43;;;;;;;6.85;3.97;;;11.70;79.00;;;;;;5053491;28;20040;-91
2021/12/17 04:59:25;;;;;;;7.32;4.32;;;11.70;79.00;;;;;;5054021;28;20040;-91
2021/12/17 05:01:51;;;;;;;6.50;3.75;;;11.70;79.00;;;;;;5040097;28;20485;-91
2021/12/17 05:04:19;;;;;;;5.40;3.35;;;11.70;79.70;;;;;;5056741;28;20033;-91
2021/12/17 05:06:46;;;;;;;6.78;3.97;;;11.60;79.00;;;;;;5025067;28;20033;-92
2021/12/17 05:09:25;;;;;;;6.60;3.45;;;11.70;79.10;;;;;;5024579;28;20033;-91
2021/12/17 05:20:19;;;;;;;6.55;3.83;;;11.60;79.00;;;;;;5044078;28;20048;-91
2021/12/17 05:22:49;;;;;;;6.30;3.60;;;11.60;79.00;;;;;;5042923;28;20029;-91
2021/12/17 05:25:16;;;;;;;7.03;4.00;;;11.60;79.00;;;;;;5040410;28;20037;-91
2021/12/17 05:27:42;;;;;;;6.85;3.53;;;11.60;79.00;;;;;;5039950;28;20098;-89
2021/12/17 05:30:09;;;;;;;8.13;4.38;;;11.60;79.00;;;;;;5023510;28;20033;-89
2021/12/17 05:32:35;;;;;;;6.70;3.70;;;11.70;79.10;;;;;;5056022;28;20037;-92
2021/12/17 05:35:02;;;;;;;6.43;3.85;;;11.60;79.00;;;;;;5039402;28;20061;-91
2021/12/17 05:37:28;;;;;;;8.13;4.57;;;11.70;79.10;;;;;;5039593;28;20117;-90
2021/12/17 05:39:54;;;;;;;6.25;3.58;;;11.70;79.00;;;;;;5040002;28;20060;-87
2021/12/17 05:42:22;;;;;;;6.18;3.75;;;11.70;79.00;;;;;;5022759;28;20041;-85
2021/12/17 05:44:59;;;;;;;6.50;3.83;;;11.60;79.00;;;;;;5056550;28;20064;-86
2021/12/17 05:47:24;;;;;;;7.20;3.63;;;11.60;79.00;;;;;;5055043;28;20040;-85
2021/12/17 05:49:50;;;;;;;6.13;3.45;;;11.70;79.00;;;;;;5038816;28;20029;-84
2021/12/17 05:52:16;;;;;;;7.28;4.07;;;11.70;79.00;;;;;;5038604;28;20044;-85
2021/12/17 05:54:42;;;;;;;7.50;3.78;;;11.70;79.00;;;;;;5022448;28;20116;-85
2021/12/17 05:57:08;;;;;;;7.55;4.15;;;11.60;79.00;;;;;;5055668;28;20505;-85
2021/12/17 05:59:36;;;;;;;7.97;3.97;;;11.70;79.00;;;;;;5038862;28;20462;-85
2021/12/17 06:02:09;;;;;;;7.72;4.35;;;11.70;79.00;;;;;;5039145;28;20129;-84
2021/12/17 06:04:37;;;;;;;7.55;4.60;;;11.60;79.00;;;;;;5039075;28;20037;-89
2021/12/17 06:07:05;;;;;;;6.47;3.88;;;11.70;79.00;;;;;;5006311;28;20408;-84
2021/12/17 06:09:32;;;;;;;7.45;3.90;;;11.60;79.00;;;;;;5054965;28;20024;-86
2021/12/17 06:12:01;;;;;;;6.63;3.83;;;11.60;79.00;;;;;;5007845;28;20057;-87
2021/12/17 06:14:27;;;;;;;6.35;3.58;;;11.60;79.00;;;;;;5021883;28;20036;-86
2021/12/17 06:16:53;;;;;;;8.23;4.10;;;11.60;79.00;;;;;;5021995;28;20428;-85
2021/12/17 06:19:27;;;;;;;7.28;3.95;;;11.60;78.90;;;;;;5023880;28;20029;-85
2021/12/17 06:21:53;;;;;;;6.70;3.70;;;11.60;78.90;;;;;;5022509;28;20040;-81
2021/12/17 06:24:19;;;;;;;6.57;3.30;;;11.60;78.90;;;;;;5023647;28;20029;-88
2021/12/17 06:26:44;;;;;;;7.25;3.60;;;11.60;78.90;;;;;;5022193;28;20024;-85
2021/12/17 06:29:16;;;;;;;5.80;3.40;;;11.60;78.90;;;;;;5022164;28;20029;-93
2021/12/17 06:31:42;;;;;;;6.82;4.10;;;11.60;79.00;;;;;;5022091;28;20036;-88
2021/12/17 06:34:08;;;;;;;7.25;3.80;;;11.70;79.00;;;;;;5038400;28;20044;-86
2021/12/17 06:36:34;;;;;;;7.13;4.20;;;11.60;79.00;;;;;;5022012;28;20040;-87
2021/12/17 06:39:00;;;;;;;6.80;3.53;;;11.70;79.00;;;;;;5021373;28;20025;-84
2021/12/17 06:41:29;;;;;;;7.43;3.70;;;11.60;79.00;;;;;;5021785;28;20021;-83
2021/12/17 06:43:57;;;;;;;7.05;3.65;;;11.60;79.00;;;;;;5037289;28;20041;-84
2021/12/17 06:48:57;;;;;;;6.57;3.47;;;11.60;79.00;;;;;;5037927;28;20086;-85
2021/12/17 07:01:04;;;;;;;5.88;3.30;;;11.60;78.90;;;;;;5056343;28;20091;-85
2021/12/17 07:18:48;;;;;;;6.68;3.63;;;11.60;79.10;;;;;;5037212;28;20060;-92
2021/12/17 07:24:45;;;;;;;6.82;3.50;;;11.60;79.00;;;;;;5008556;28;20036;-88
2021/12/17 07:34:12;;;;;;;7.03;3.63;;;11.60;79.10;;;;;;5007598;28;20037;-87
2021/12/17 07:36:57;;;;;;;6.25;3.47;;;11.60;79.10;;;;;;5038135;28;20163;-88
2021/12/17 07:39:25;;;;;;;6.25;3.63;;;11.60;79.00;;;;;;5021671;28;20470;-88
2021/12/17 07:42:14;;;;;;;7.07;3.95;;;11.60;79.00;;;;;;5047491;28;20090;-88
2021/12/17 07:44:55;;;;;;;7.22;3.83;;;11.60;79.00;;;;;;5025850;28;20048;-88
2021/12/17 07:47:35;;;;;;;6.43;3.67;;;11.60;79.00;;;;;;5022667;28;20025;-88
2021/12/17 07:50:25;;;;;;;5.78;3.30;;;11.60;79.10;;;;;;5023228;28;20037;-88
2021/12/17 07:53:17;;;;;;;6.95;3.72;;;11.50;79.00;;;;;;4995779;28;20029;-88
2021/12/17 07:55:54;;;;;;;6.70;3.40;;;11.60;79.10;;;;;;5022482;28;20438;-85
2021/12/17 07:58:21;;;;;;;6.45;3.42;;;11.60;79.10;;;;;;5020661;28;20029;-87
2021/12/17 08:00:47;;;;;;;7.00;3.88;;;11.50;79.00;;;;;;5036705;28;20053;-86
2021/12/17 08:03:14;;;;;;;6.30;3.33;;;11.60;79.10;;;;;;5020395;28;20033;-87
2021/12/17 08:06:04;;;;;;;6.85;3.60;;;11.60;79.10;;;;;;5025109;28;20037;-87
2021/12/17 08:08:37;;;;;;;6.93;3.90;;;11.60;79.10;;;;;;5021846;28;20033;-87
2021/12/17 08:11:22;;;;;;;6.72;3.58;;;11.60;79.10;;;;;;5022714;28;20057;-86
2021/12/17 08:13:48;;;;;;;6.13;3.60;;;11.60;79.00;;;;;;5004818;28;20044;-87
2021/12/17 08:32:07;;;;;;;6.90;3.60;;;11.60;79.10;;;;;;5037623;28;20048;-86
2021/12/17 08:34:59;;;;;;;5.15;2.88;;;11.60;79.10;;;;;;5051467;28;20033;-86
2021/12/17 08:37:25;;;;;;;5.70;3.40;;;11.60;79.10;;;;;;5024500;28;20033;-87
2021/12/17 08:39:53;;;;;;;5.07;3.00;;;11.60;79.10;;;;;;5041503;28;20025;-85
2021/12/17 08:42:32;;;;;;;5.53;3.15;;;11.60;79.20;;;;;;5013927;28;20037;-86
2021/12/17 08:45:00;;;;;;;5.97;3.70;;;11.60;79.10;;;;;;5042246;28;20036;-90
2021/12/17 08:47:50;;;;;;;5.32;2.92;;;11.60;79.10;;;;;;5023140;28;20037;-87
2021/12/17 08:50:25;;;;;;;6.70;3.75;;;11.60;79.10;;;;;;5040536;28;20033;-88
2021/12/17 08:52:53;;;;;;;4.82;2.90;;;11.60;79.10;;;;;;5041178;28;20473;-86
2021/12/17 08:55:20;;;;;;;5.50;3.25;;;11.60;79.10;;;;;;5024436;28;20045;-88
2021/12/17 08:57:45;;;;;;;5.80;3.40;;;11.60;79.10;;;;;;5007180;28;20037;-88
2021/12/17 09:00:13;;;;;;;5.80;2.97;;;11.60;79.10;;;;;;5024554;28;20025;-87
2021/12/17 09:02:48;;;;;;;5.43;3.05;;;11.60;79.20;;;;;;5041629;28;20032;-86
2021/12/17 09:05:39;;;;;;;5.55;2.80;;;11.60;79.10;;;;;;5027589;28;20044;-87
2021/12/17 09:08:08;;;;;;;5.20;3.00;;;11.60;79.10;;;;;;5003651;28;20026;-87
2021/12/17 09:10:55;;;;;;;5.03;2.92;;;11.60;79.10;;;;;;5030652;28;20057;-87
2021/12/17 09:13:27;;;;;;;5.85;3.20;;;11.60;79.10;;;;;;5037459;28;20065;-88
2021/12/17 09:15:58;;;;;;;5.00;2.90;;;11.60;79.10;;;;;;5040331;28;20032;-87
2021/12/17 09:18:34;;;;;;;4.95;2.80;;;11.60;79.10;;;;;;5025123;28;20025;-88
2021/12/17 09:21:10;;;;;;;5.43;3.13;;;11.60;79.10;;;;;;5040109;28;20454;-89
2021/12/17 09:23:57;;;;;;;4.65;2.63;;;11.60;79.10;;;;;;5012302;28;20380;-88
2021/12/17 09:26:23;;;;;;;5.38;3.03;;;11.60;79.10;;;;;;5007584;28;20087;-87
2021/12/17 09:28:51;;;;;;;4.60;2.80;;;11.60;79.10;;;;;;5023255;28;20029;-88
2021/12/17 09:31:17;;;;;;;5.07;3.00;;;11.60;79.20;;;;;;5022619;28;20032;-88
2021/12/17 09:33:46;;;;;;;5.75;2.83;;;11.60;79.20;;;;;;5007119;28;20094;-89
2021/12/17 09:36:12;;;;;;;4.70;2.70;;;11.60;79.20;;;;;;5023635;28;20028;-88
2021/12/17 09:38:37;;;;;;;4.25;2.42;;;11.70;79.20;;;;;;5039475;28;20025;-88
2021/12/17 09:41:07;;;;;;;5.30;2.55;;;11.70;79.20;;;;;;5057200;28;20114;-87
2021/12/17 09:43:36;;;;;;;4.82;2.83;;;11.70;79.30;;;;;;5039303;28;20036;-88
2021/12/17 09:46:05;;;;;;;4.65;2.80;;;11.70;79.30;;;;;;5038778;28;20043;-88
2021/12/17 09:48:32;;;;;;;4.70;2.63;;;11.70;79.30;;;;;;5038888;28;20021;-87
2021/12/17 09:50:59;;;;;;;4.78;2.83;;;11.70;79.20;;;;;;5056318;28;20067;-89
2021/12/17 09:53:24;;;;;;;4.25;2.40;;;11.70;79.20;;;;;;5022886;28;20040;-89
2021/12/17 09:55:51;;;;;;;4.13;2.47;;;11.70;79.20;;;;;;5022965;28;20442;-89
2021/12/17 09:58:17;;;;;;;4.25;2.28;;;11.70;79.20;;;;;;5001732;28;20040;-89
2021/12/17 10:00:43;;;;;;;4.53;2.25;;;11.70;79.90;;;;;;5022717;28;20504;-88
2021/12/17 10:03:09;;;;;;;3.65;2.30;;;11.70;79.20;;;;;;5056384;28;20454;-87
2021/12/17 10:05:38;;;;;;;4.65;2.45;;;11.70;79.20;;;;;;5038743;28;20082;-81
2021/12/17 10:08:09;;;;;;;5.55;2.40;;;11.70;79.20;;;;;;5022034;28;20036;-85
2021/12/17 10:10:42;;;;;;;4.10;2.45;;;11.70;79.20;;;;;;5038781;28;20076;-85
2021/12/17 10:13:18;;;;;;;4.43;2.50;;;11.70;79.20;;;;;;5038963;28;20040;-85
2021/12/17 10:15:47;;;;;;;4.25;2.53;;;11.70;79.20;;;;;;5039294;28;20029;-87
2021/12/17 10:18:14;;;;;;;3.53;2.08;;;11.70;79.20;;;;;;5038257;28;20119;-86
2021/12/17 10:20:58;;;;;;;3.63;2.33;;;11.70;79.20;;;;;;5022433;28;20037;-86
2021/12/17 10:23:26;;;;;;;3.80;2.05;;;11.70;79.40;;;;;;5038802;28;20078;-86
2021/12/17 10:25:52;;;;;;;3.47;2.13;;;11.70;79.20;;;;;;5022020;28;20033;-87
2021/12/17 10:28:18;;;;;;;3.95;2.28;;;11.70;79.20;;;;;;5022342;28;20031;-87
2021/12/17 10:30:47;;;;;;;3.85;2.33;;;11.70;79.20;;;;;;5039772;28;20037;-86
2021/12/17 10:33:18;;;;;;;4.60;2.50;;;11.70;79.20;;;;;;5039113;28;20027;-87
2021/12/17 10:35:48;;;;;;;3.95;2.10;;;11.70;79.30;;;;;;5039357;28;20477;-86
2021/12/17 10:38:20;;;;;;;3.78;2.10;;;11.70;79.20;;;;;;5039451;28;20082;-86
2021/12/17 10:41:03;;;;;;;3.83;2.20;;;11.70;79.20;;;;;;5040381;28;20120;-86
2021/12/17 10:43:44;;;;;;;2.72;1.73;;;11.80;79.30;;;;;;5023508;28;20032;-87
2021/12/17 10:52:07;;;;;;;3.30;1.90;;;11.80;79.20;;;;;;4983717;28;20448;-87
2021/12/17 10:54:33;;;;;;;3.33;1.80;;;11.70;79.30;;;;;;5021790;28;20032;-88
2021/12/17 10:57:00;;;;;;;2.58;1.70;;;11.70;79.20;;;;;;5055110;28;20064;-89
2021/12/17 10:59:31;;;;;;;3.58;2.20;;;11.70;79.30;;;;;;5037066;28;20032;-87
2021/12/17 11:02:06;;;;;;;2.67;1.70;;;11.80;80.00;;;;;;5021541;28;20033;-88
2021/12/17 11:04:41;;;;;;;2.92;1.92;;;11.80;79.40;;;;;;5037824;28;20029;-85
2021/12/17 11:07:15;;;;;;;3.08;1.95;;;11.80;79.30;;;;;;5038560;28;20056;-85
2021/12/17 11:09:47;;;;;;;3.60;1.88;;;11.80;79.30;;;;;;5037991;28;20041;-87
2021/12/17 11:12:35;;;;;;;2.85;1.75;;;11.80;79.30;;;;;;5037664;28;20044;-83
2021/12/17 11:15:08;;;;;;;2.70;1.67;;;11.80;79.30;;;;;;5021510;28;20140;-87
2021/12/17 11:17:34;;;;;;;2.35;1.70;;;11.80;79.40;;;;;;5037585;28;20514;-84
2021/12/17 11:20:06;;;;;;;3.70;1.98;;;11.80;79.30;;;;;;5021811;28;20123;-86
2021/12/17 11:22:32;;;;;;;2.65;1.70;;;11.80;79.40;;;;;;5042188;28;20037;-90
2021/12/17 11:25:01;;;;;;;2.60;1.80;;;11.80;79.90;;;;;;5006269;28;20032;-93
2021/12/17 11:27:30;;;;;;;2.10;1.52;;;11.80;79.40;;;;;;5022582;28;20025;-93
2021/12/17 11:29:56;;;;;;;2.95;1.77;;;11.80;79.30;;;;;;5021282;28;20036;-91
2021/12/17 11:32:23;;;;;;;1.85;1.60;;;11.80;79.30;;;;;;5038593;28;20037;-92
2021/12/17 11:34:52;;;;;;;2.47;1.58;;;11.80;79.30;;;;;;5022191;28;20025;-91
2021/12/17 11:37:19;;;;;;;2.60;1.65;;;11.80;79.30;;;;;;5021317;28;20036;-92
2021/12/17 11:39:53;;;;;;;2.88;1.70;;;11.90;79.40;;;;;;5021271;28;20428;-90
2021/12/17 11:42:48;;;;;;;2.20;1.58;;;11.90;79.40;;;;;;5037541;28;20029;-91
2021/12/17 11:45:26;;;;;;;2.55;1.65;;;11.80;79.40;;;;;;5037288;28;20029;-87
2021/12/17 11:48:13;;;;;;;3.28;1.70;;;11.90;79.20;;;;;;5037349;28;20033;-91
2021/12/17 11:50:39;;;;;;;2.25;1.67;;;11.90;79.40;;;;;;5021284;28;20033;-92
2021/12/17 11:53:25;;;;;;;2.42;1.60;;;11.90;79.30;;;;;;5020621;28;20183;-87
2021/12/17 11:55:58;;;;;;;;;;;11.90;79.40;;;;;;5037482;28;20063;-90
2021/12/17 11:58:52;;;;;;;2.30;1.60;;;11.90;79.20;;;;;;5020215;28;19915;-92
2021/12/17 12:01:57;;;;;;;2.22;1.70;;;11.90;79.30;;;;;;5019998;28;20037;-91
2021/12/17 12:04:32;;;;;;;1.73;1.42;;;11.90;79.50;;;;;;5037450;28;20033;-84
2021/12/17 12:07:12;;;;;;;2.55;1.80;;;11.80;79.30;;;;;;5037426;28;20025;-91
2021/12/17 12:10:12;;;;;;;2.80;1.77;;;11.90;79.50;;;;;;5038920;28;20033;-91
2021/12/17 12:12:40;;;;;;;3.03;1.77;;;11.90;79.50;;;;;;5041242;28;20075;-93
2021/12/17 12:15:24;;;;;;;2.97;1.73;;;11.90;79.40;;;;;;5058600;28;20033;-92
2021/12/17 12:18:18;;;;;;;2.28;1.50;;;11.90;79.50;;;;;;5059003;28;20497;-94
2021/12/17 12:20:50;;;;;;;2.08;1.52;;;11.90;79.50;;;;;;5041132;28;20028;-93
2021/12/17 12:23:23;;;;;;;2.47;1.60;;;11.90;79.40;;;;;;5023954;28;20029;-92
2021/12/17 12:26:02;;;;;;;1.90;1.50;;;11.90;79.40;;;;;;5040557;28;20111;-90
2021/12/17 12:29:14;;;;;;;2.33;1.60;;;11.90;79.50;;;;;;5040832;28;20056;-92
2021/12/17 12:31:42;;;;;;;2.22;1.48;;;11.90;79.50;;;;;;5054833;28;20044;-92
2021/12/17 12:34:12;;;;;;;1.70;1.40;;;11.90;79.30;;;;;;5024958;28;20033;-92
2021/12/17 12:36:50;;;;;;;2.50;1.80;;;11.90;79.40;;;;;;5024164;28;20108;-92
2021/12/17 12:39:35;;;;;;;1.65;1.45;;;11.90;79.40;;;;;;5024111;28;20466;-92
2021/12/17 12:42:01;;;;;;;1.42;1.33;;;11.90;79.40;;;;;;5041154;28;20036;-93
2021/12/17 12:44:42;;;;;;;1.73;1.50;;;11.90;79.30;;;;;;5040243;28;20029;-91
2021/12/17 12:47:10;;;;;;;2.20;1.50;;;12.00;79.50;;;;;;5024241;28;20025;-93
2021/12/17 12:49:42;;;;;;;2.05;1.50;;;12.00;79.30;;;;;;5040585;28;20025;-93
2021/12/17 12:52:25;;;;;;;2.17;1.55;;;12.00;79.40;;;;;;5058128;28;20040;-92
2021/12/17 12:55:23;;;;;;;1.60;1.50;;;12.00;79.40;;;;;;5058207;28;20036;-94
2021/12/17 12:57:48;;;;;;;2.25;1.58;;;12.00;79.50;;;;;;5032774;28;20043;-92
2021/12/17 13:00:19;;;;;;;1.30;1.20;;;12.00;79.30;;;;;;5024085;28;20466;-92
2021/12/17 13:02:50;;;;;;;2.25;1.50;;;12.00;79.40;;;;;;5040271;28;20029;-92
2021/12/17 13:05:16;;;;;;;1.30;1.20;;;12.00;79.30;;;;;;5024471;28;20075;-92
2021/12/17 13:07:47;;;;;;;1.50;1.40;;;12.00;79.30;;;;;;5040863;28;20025;-93
2021/12/17 13:10:18;;;;;;;2.20;1.40;;;12.00;79.30;;;;;;5023961;28;20025;-91
2021/12/17 13:13:00;;;;;;;2.50;1.83;;;12.00;79.30;;;;;;5038931;28;20052;-91
2021/12/17 13:15:42;;;;;;;1.98;1.70;;;12.00;79.30;;;;;;5060740;28;20040;-93
2021/12/17 13:21:16;;;;;;;2.00;1.50;;;12.00;79.20;;;;;;5058409;28;20031;-92
2021/12/17 13:23:49;;;;;;;1.77;1.50;;;12.10;79.30;;;;;;5056597;28;20163;-93
2021/12/17 13:26:16;;;;;;;1.33;1.23;;;12.10;79.20;;;;;;5056793;28;20061;-92
2021/12/17 13:29:09;;;;;;;1.92;1.70;;;12.10;79.30;;;;;;5057893;28;20032;-89
2021/12/17 13:31:37;;;;;;;2.00;1.45;;;12.10;79.40;;;;;;5039678;28;20033;-92
2021/12/17 13:34:13;;;;;;;2.28;1.30;;;12.10;79.20;;;;;;5056204;28;20124;-94
2021/12/17 13:37:06;;;;;;;1.75;1.50;;;12.10;79.30;;;;;;5040222;28;20036;-95
2021/12/17 13:39:43;;;;;;;2.15;1.55;;;12.10;79.40;;;;;;5040437;28;20058;-86
2021/12/17 13:42:15;;;;;;;1.35;1.25;;;12.10;79.20;;;;;;5056920;28;20025;-85
2021/12/17 13:44:41;;;;;;;2.40;1.55;;;12.10;79.30;;;;;;5015652;28;20115;-86
2021/12/17 13:47:12;;;;;;;2.17;1.65;;;12.10;79.20;;;;;;5039157;28;20110;-93
2021/12/17 13:49:41;;;;;;;1.67;1.58;;;12.10;79.30;;;;;;5056529;28;20418;-93
2021/12/17 13:52:06;;;;;;;2.08;1.45;;;12.10;79.30;;;;;;5055619;28;20375;-95
2021/12/17 13:54:33;;;;;;;1.85;1.40;;;12.10;79.20;;;;;;5040458;28;20128;-91
2021/12/17 13:57:01;;;;;;;1.63;1.52;;;12.10;79.20;;;;;;5055771;28;20035;-93
2021/12/17 13:59:36;;;;;;;1.67;1.42;;;12.20;79.30;;;;;;5039835;28;20025;-90
2021/12/17 14:02:10;;;;;;;;;;;12.20;79.40;;;;;;5040479;28;20040;-90
2021/12/17 14:04:37;;;;;;;1.33;1.23;;;12.20;79.20;;;;;;5039556;28;19916;-89
2021/12/17 14:07:10;;;;;;;1.60;1.50;;;12.20;79.10;;;;;;5038574;28;20090;-89
2021/12/17 14:09:36;;;;;;;1.50;1.40;;;12.20;79.30;;;;;;5057574;28;20029;-91
2021/12/17 14:12:10;;;;;;;1.67;1.50;;;12.20;79.30;;;;;;5056619;28;20567;-89
2021/12/17 14:14:36;;;;;;;1.50;1.40;;;12.20;79.40;;;;;;5038912;28;20064;-89
2021/12/17 14:17:05;;;;;;;2.05;1.48;;;12.20;79.30;;;;;;5039532;28;20029;-92
2021/12/17 14:19:50;;;;;;;1.45;1.35;;;12.10;79.30;;;;;;5039133;28;20021;-93
2021/12/17 14:22:27;;;;;;;1.63;1.33;;;12.20;79.50;;;;;;5056218;28;20044;-90
2021/12/17 14:25:00;;;;;;;1.60;1.50;;;12.20;79.40;;;;;;5039210;28;20071;-91
2021/12/17 14:27:48;;;;;;;1.70;1.58;;;12.20;79.30;;;;;;5038738;28;20167;-90
2021/12/17 14:30:14;;;;;;;1.92;1.55;;;12.20;79.40;;;;;;5039372;28;20021;-95
2021/12/17 14:32:42;;;;;;;1.65;1.48;;;12.20;79.20;;;;;;5022241;28;20029;-93
2021/12/17 14:35:09;;;;;;;1.85;1.45;;;12.20;79.30;;;;;;5038742;28;20045;-95
2021/12/17 14:37:51;;;;;;;1.60;1.50;;;12.20;79.30;;;;;;5056127;28;20049;-91
2021/12/17 14:40:33;;;;;;;1.70;1.48;;;12.20;79.40;;;;;;5055185;28;20029;-95
2021/12/17 14:42:59;;;;;;;2.72;1.63;;;12.30;79.40;;;;;;5038914;28;20112;-86
2021/12/17 14:45:42;;;;;;;1.52;1.38;;;12.20;79.20;;;;;;5038780;28;20375;-90
2021/12/17 14:48:21;;;;;;;2.00;1.48;;;12.20;79.30;;;;;;5038173;28;20040;-90
2021/12/17 15:02:51;;;;;;;1.77;1.48;;;12.20;79.40;;;;;;5047286;28;20041;-91
2021/12/17 15:05:21;;;;;;;1.90;1.52;;;12.20;79.20;;;;;;5038266;28;20119;-91
2021/12/17 15:07:47;;;;;;;2.05;1.77;;;12.20;79.20;;;;;;5055229;28;20025;-90
2021/12/17 15:10:15;;;;;;;1.67;1.50;;;12.20;79.20;;;;;;5021112;28;20052;-90
2021/12/17 15:12:41;;;;;;;1.73;1.63;;;12.20;79.30;;;;;;5002692;28;20096;-91
2021/12/17 15:15:27;;;;;;;2.25;1.77;;;12.20;79.20;;;;;;5017732;28;20071;-90
2021/12/17 15:17:55;;;;;;;2.58;1.92;;;12.20;79.40;;;;;;5017965;28;20081;-91
2021/12/17 15:20:24;;;;;;;2.35;1.80;;;12.20;79.20;;;;;;5035281;28;20032;-84
2021/12/17 15:22:51;;;;;;;2.72;2.25;;;12.20;79.20;;;;;;5035065;28;20060;-90
2021/12/17 15:25:18;;;;;;;2.17;1.90;;;12.20;79.10;;;;;;5001528;28;20356;-91
2021/12/17 15:27:44;;;;;;;2.50;1.88;;;12.20;79.10;;;;;;5017663;28;20025;-92
2021/12/17 15:30:20;;;;;;;2.92;2.15;;;12.20;79.10;;;;;;5001127;28;20374;-93
2021/12/17 15:32:46;;;;;;;2.53;1.88;;;12.20;79.10;;;;;;5017604;28;20030;-92
2021/12/17 15:35:14;;;;;;;2.83;2.13;;;12.20;79.00;;;;;;5017888;28;20021;-88
2021/12/17 15:37:40;;;;;;;2.78;2.10;;;12.20;79.10;;;;;;5017373;28;20113;-92
2021/12/17 15:40:07;;;;;;;2.53;1.98;;;12.20;79.00;;;;;;4985029;28;20107;-91
2021/12/17 15:42:33;;;;;;;3.08;2.05;;;12.20;79.10;;;;;;5034977;28;20048;-89
2021/12/17 15:44:59;;;;;;;2.00;1.80;;;12.20;79.00;;;;;;5000421;28;20026;-90
2021/12/17 15:47:25;;;;;;;3.17;2.30;;;12.20;79.60;;;;;;5002240;28;20316;-91
2021/12/17 15:49:51;;;;;;;2.58;1.90;;;12.20;79.00;;;;;;5002447;28;20396;-88
2021/12/17 15:52:17;;;;;;;3.13;2.05;;;12.20;79.00;;;;;;5001278;28;20068;-94
2021/12/17 15:54:46;;;;;;;2.63;1.98;;;12.20;79.00;;;;;;4986187;28;20025;-92
2021/12/17 15:57:12;;;;;;;3.03;2.00;;;12.20;79.00;;;;;;5018005;28;20056;-90
2021/12/17 15:59:38;;;;;;;3.90;2.63;;;12.20;79.00;;;;;;5001622;28;20026;-89
2021/12/17 16:02:04;;;;;;;3.40;2.10;;;12.20;79.00;;;;;;5025438;28;20059;-96
2021/12/17 16:04:36;;;;;;;2.75;2.03;;;12.20;78.90;;;;;;5014452;28;20097;-93
2021/12/17 16:07:03;;;;;;;3.08;2.28;;;12.20;79.00;;;;;;5013951;28;20121;-94
2021/12/17 16:22:58;;;;;;;2.97;2.20;;;12.20;78.90;;;;;;5054277;28;20119;-91
2021/12/17 16:25:24;;;;;;;2.80;2.08;;;12.10;78.90;;;;;;5052932;28;20025;-90
2021/12/17 16:27:50;;;;;;;3.35;2.40;;;12.10;78.90;;;;;;5037092;28;20411;-91
2021/12/17 16:30:16;;;;;;;3.38;2.25;;;12.20;79.00;;;;;;5052922;28;20458;-90
2021/12/17 16:32:42;;;;;;;3.60;2.65;;;12.10;79.00;;;;;;5053475;28;20037;-87
2021/12/17 16:35:08;;;;;;;4.28;2.83;;;12.20;79.60;;;;;;5054103;28;20036;-87
2021/12/17 16:37:35;;;;;;;4.53;3.00;;;12.20;78.90;;;;;;5036599;28;20037;-87
2021/12/17 16:40:03;;;;;;;4.00;2.70;;;12.20;78.90;;;;;;5036650;28;20033;-88
2021/12/17 16:42:29;;;;;;;4.28;2.95;;;12.20;78.80;;;;;;5036385;28;20163;-84